Mc Callsburg, Iowa
Current Conditions -  °F | °C
As of 8:53 PM on Saturday 20 Dec 2014 (Local Time) from KAMW Reporting Station
Haze Haze  
Wind Chill: 27°   Ceiling: 1100
Heat Index: 33°   Visibility: 3mi
Dew Point: 32°   Wind: 7mph
Humidity: 96%   Direction: 150°SSE
Pressure: 30.11"   Gusts: NA
Location:  42.1646°N, 93.4047°W
Report Text: KAMW 210253Z AUTO 15006KT 3SM BR FEW003 OVC011 01/00 A3011 RMK AO2 SLP204 T00060000 58005
Loading
Personal Weather Stations






























Interactive Weather Map New forecast layout! Learn more

10-Day Weather Forecast

Advertisements
Track Severe Weather on mobile